Time;durP1;ratioP1;P1;durP2;ratioP2;P2;SDS_P1;SDS_P2;PMS_P1;PMS_P2;Temp;Humidity;BMP_temperature;BMP_pressure;BME280_temperature;BME280_humidity;BME280_pressure;Samples;Min_cycle;Max_cycle;Signal;HPM_P1;HPM_P2
2024/01/07 00:00:38;;;;;;;35.00;16.73;;;2.40;90.00;;;;;;9183027;19;20052;-71
2024/01/07 00:03:48;;;;;;;33.85;16.60;;;2.40;90.00;;;;;;9182736;19;20015;-72
2024/01/07 00:06:54;;;;;;;32.70;16.20;;;2.40;90.00;;;;;;9180833;19;20019;-71
2024/01/07 00:10:02;;;;;;;34.60;15.27;;;2.40;90.00;;;;;;9179557;19;20057;-71
2024/01/07 00:13:08;;;;;;;30.90;15.15;;;2.40;90.00;;;;;;9178768;19;20022;-71
2024/01/07 00:16:15;;;;;;;29.88;14.73;;;2.40;90.00;;;;;;9179253;19;20021;-72
2024/01/07 00:19:24;;;;;;;30.50;15.40;;;2.40;90.00;;;;;;9182608;19;20014;-72
2024/01/07 00:22:31;;;;;;;25.13;13.68;;;2.40;90.00;;;;;;9183011;19;20018;-72
2024/01/07 00:25:37;;;;;;;30.63;14.88;;;2.40;90.00;;;;;;9181175;19;20029;-71
2024/01/07 00:28:46;;;;;;;27.40;12.95;;;2.40;90.00;;;;;;9181536;19;20354;-72
2024/01/07 00:31:51;;;;;;;32.58;14.55;;;2.30;90.00;;;;;;9179611;19;20006;-74
2024/01/07 00:35:01;;;;;;;32.50;13.95;;;2.30;90.00;;;;;;9179458;19;20021;-71
2024/01/07 00:38:07;;;;;;;26.67;13.18;;;2.30;90.00;;;;;;9176217;19;20301;-71
2024/01/07 00:41:15;;;;;;;26.63;12.70;;;2.30;90.00;;;;;;9177654;19;20029;-72
2024/01/07 00:44:20;;;;;;;30.70;12.55;;;2.20;90.00;;;;;;9180431;19;20515;-71
2024/01/07 00:47:28;;;;;;;25.80;13.43;;;2.20;90.00;;;;;;9180766;19;20015;-72
2024/01/07 00:50:36;;;;;;;31.67;13.98;;;2.20;90.00;;;;;;9180296;19;20068;-72
2024/01/07 00:53:44;;;;;;;23.95;12.43;;;2.20;90.00;;;;;;9178597;19;20025;-72
2024/01/07 00:56:50;;;;;;;30.77;14.73;;;2.20;90.00;;;;;;9181263;19;20018;-71
2024/01/07 00:59:58;;;;;;;29.33;13.73;;;2.20;90.00;;;;;;9180771;19;20010;-72
2024/01/07 01:03:03;;;;;;;27.23;13.43;;;2.10;90.00;;;;;;9180641;19;20007;-72
2024/01/07 01:06:14;;;;;;;30.63;13.98;;;2.10;90.00;;;;;;9179142;19;20699;-71
2024/01/07 01:09:20;;;;;;;26.85;13.50;;;2.10;90.00;;;;;;9179345;19;20018;-71
2024/01/07 01:12:28;;;;;;;27.13;13.52;;;2.10;90.10;;;;;;9174744;19;20018;-73
2024/01/07 01:15:34;;;;;;;36.05;14.50;;;2.10;90.00;;;;;;9180252;19;20480;-72
2024/01/07 01:18:41;;;;;;;30.33;15.20;;;2.10;90.00;;;;;;9178306;19;20018;-72
2024/01/07 01:21:50;;;;;;;32.25;14.38;;;2.10;90.00;;;;;;9179505;19;20018;-72
2024/01/07 01:24:58;;;;;;;27.00;13.70;;;2.10;90.00;;;;;;9179308;19;20022;-72
2024/01/07 01:28:06;;;;;;;26.80;13.55;;;2.00;90.00;;;;;;9176762;19;20392;-71
2024/01/07 01:31:16;;;;;;;27.35;14.57;;;2.00;90.00;;;;;;9176788;19;20014;-73
2024/01/07 01:34:22;;;;;;;27.33;13.52;;;2.10;90.10;;;;;;9177611;19;20049;-72
2024/01/07 01:37:33;;;;;;;23.50;13.35;;;2.10;90.10;;;;;;9178061;19;20024;-74
2024/01/07 01:40:38;;;;;;;22.30;12.07;;;2.10;90.00;;;;;;9178125;19;20015;-72
2024/01/07 01:43:46;;;;;;;27.90;12.60;;;2.00;90.00;;;;;;9178511;19;20018;-72
2024/01/07 01:46:52;;;;;;;26.42;13.10;;;2.00;90.00;;;;;;9176969;19;20018;-71
2024/01/07 01:50:00;;;;;;;20.65;10.85;;;2.00;90.00;;;;;;9177905;19;20006;-72
2024/01/07 01:53:16;;;;;;;23.80;11.32;;;2.00;90.00;;;;;;9175892;19;20014;-70
2024/01/07 01:56:25;;;;;;;19.50;10.25;;;2.10;90.00;;;;;;9176837;19;20024;-71
2024/01/07 01:59:31;;;;;;;19.88;9.80;;;2.10;90.00;;;;;;9176164;19;20018;-70
2024/01/07 02:02:39;;;;;;;17.45;9.80;;;2.00;90.00;;;;;;9176796;19;20018;-71
2024/01/07 02:05:45;;;;;;;17.45;10.00;;;2.00;90.00;;;;;;9178588;19;20010;-71
2024/01/07 02:08:55;;;;;;;23.58;9.32;;;2.00;90.00;;;;;;9175536;19;20013;-71
2024/01/07 02:12:11;;;;;;;18.70;9.82;;;2.00;90.00;;;;;;9176155;19;20014;-72
2024/01/07 02:15:20;;;;;;;16.45;10.30;;;2.00;90.00;;;;;;9177875;19;20019;-71
2024/01/07 02:18:25;;;;;;;17.15;9.50;;;2.00;89.90;;;;;;9175470;19;20041;-71
2024/01/07 02:21:33;;;;;;;17.70;9.32;;;2.00;90.00;;;;;;9177183;19;20024;-71
2024/01/07 02:24:46;;;;;;;21.38;9.38;;;2.00;90.00;;;;;;9176774;19;20018;-70
2024/01/07 02:27:52;;;;;;;15.77;9.55;;;2.00;90.00;;;;;;9175423;19;20014;-72
2024/01/07 02:31:00;;;;;;;20.23;10.13;;;2.00;90.00;;;;;;9175863;19;20022;-72
2024/01/07 02:34:07;;;;;;;14.82;8.93;;;2.00;89.90;;;;;;9178128;19;20015;-73
2024/01/07 02:37:16;;;;;;;18.17;9.27;;;2.00;89.80;;;;;;9175006;19;20011;-70
2024/01/07 02:40:24;;;;;;;14.98;9.15;;;1.90;89.80;;;;;;9174785;19;20022;-72
2024/01/07 02:43:32;;;;;;;14.90;9.40;;;1.90;89.90;;;;;;9175673;19;20052;-72
2024/01/07 02:46:37;;;;;;;15.30;8.57;;;1.90;89.90;;;;;;9175875;19;20011;-71
2024/01/07 02:49:45;;;;;;;18.83;10.35;;;1.90;89.90;;;;;;9176235;19;20022;-71
2024/01/07 02:52:52;;;;;;;17.17;8.60;;;1.90;89.80;;;;;;9170753;19;20093;-72
2024/01/07 02:56:02;;;;;;;15.60;8.73;;;1.90;89.90;;;;;;9175301;19;20497;-73
2024/01/07 02:59:08;;;;;;;16.40;9.32;;;1.90;89.80;;;;;;9172855;19;20017;-76
2024/01/07 03:02:18;;;;;;;18.75;10.10;;;1.90;89.80;;;;;;9171190;19;20494;-76
2024/01/07 03:05:24;;;;;;;16.98;9.98;;;1.90;89.80;;;;;;9167031;19;20015;-76
2024/01/07 03:08:32;;;;;;;17.17;10.32;;;1.90;90.10;;;;;;9168090;19;20090;-75
2024/01/07 03:11:42;;;;;;;15.90;9.25;;;1.90;89.80;;;;;;9169845;19;20491;-76
2024/01/07 03:14:50;;;;;;;16.02;8.90;;;1.90;89.80;;;;;;9166439;19;20501;-75
2024/01/07 03:17:55;;;;;;;19.73;9.50;;;1.80;89.70;;;;;;9172650;19;20031;-76
2024/01/07 03:21:03;;;;;;;18.48;8.55;;;1.80;89.60;;;;;;9176216;19;20014;-76
2024/01/07 03:24:09;;;;;;;18.77;8.40;;;1.80;89.60;;;;;;9174762;19;20018;-76
2024/01/07 03:27:19;;;;;;;12.75;8.18;;;1.80;90.10;;;;;;9175573;19;20014;-76
2024/01/07 03:30:26;;;;;;;16.55;8.45;;;1.80;89.60;;;;;;9173784;19;20022;-79
2024/01/07 03:33:34;;;;;;;15.48;9.40;;;1.80;89.70;;;;;;9171314;19;20018;-75
2024/01/07 03:36:40;;;;;;;13.65;8.52;;;1.80;89.70;;;;;;9173232;19;20011;-77
2024/01/07 03:39:49;;;;;;;17.67;8.75;;;1.80;89.60;;;;;;9174285;19;20015;-76
2024/01/07 03:42:57;;;;;;;16.63;9.23;;;1.80;89.50;;;;;;9175563;19;20011;-74
2024/01/07 03:46:06;;;;;;;16.75;9.63;;;1.70;89.50;;;;;;9173967;19;20022;-75
2024/01/07 03:49:11;;;;;;;17.50;9.77;;;1.70;89.50;;;;;;9172121;19;20014;-76
2024/01/07 03:52:19;;;;;;;16.83;8.60;;;1.70;89.50;;;;;;9173308;19;20345;-78
2024/01/07 03:55:26;;;;;;;15.85;9.38;;;1.70;89.40;;;;;;9174213;19;20056;-76
2024/01/07 03:58:37;;;;;;;15.60;9.38;;;1.70;89.50;;;;;;9172375;19;20018;-74
2024/01/07 04:01:42;;;;;;;17.67;9.02;;;1.70;89.50;;;;;;9172443;19;20026;-76
2024/01/07 04:04:50;;;;;;;17.77;9.13;;;1.70;89.50;;;;;;9173812;19;20018;-76
2024/01/07 04:07:56;;;;;;;15.77;9.23;;;1.70;89.50;;;;;;9171927;19;20011;-76
2024/01/07 04:11:06;;;;;;;16.30;8.98;;;1.60;89.40;;;;;;9182879;19;20033;-75
2024/01/07 04:14:17;;;;;;;15.80;9.32;;;1.60;89.40;;;;;;9178054;19;20014;-78
2024/01/07 04:17:25;;;;;;;17.25;8.45;;;1.60;89.40;;;;;;9182362;19;20022;-76
2024/01/07 04:20:31;;;;;;;16.38;9.57;;;1.60;89.50;;;;;;9181338;19;20010;-76
2024/01/07 04:23:39;;;;;;;14.25;8.82;;;1.60;89.40;;;;;;9180676;19;20022;-77
2024/01/07 04:26:44;;;;;;;15.82;9.45;;;1.60;89.40;;;;;;9184170;19;20112;-77
2024/01/07 04:29:55;;;;;;;18.83;9.27;;;1.60;89.30;;;;;;9182929;19;20533;-75
2024/01/07 04:33:00;;;;;;;17.75;8.10;;;1.50;89.30;;;;;;9181966;19;20484;-80
2024/01/07 04:36:09;;;;;;;18.75;10.00;;;1.50;89.30;;;;;;9182458;19;20484;-76
2024/01/07 04:39:15;;;;;;;18.10;8.68;;;1.60;89.40;;;;;;9180639;19;20110;-76
2024/01/07 04:42:22;;;;;;;15.40;8.32;;;1.50;89.30;;;;;;9183261;19;20018;-76
2024/01/07 04:45:31;;;;;;;17.40;9.13;;;1.60;89.30;;;;;;9182879;19;20018;-76
2024/01/07 04:48:40;;;;;;;17.15;9.32;;;1.50;89.30;;;;;;9182449;19;20015;-76
2024/01/07 04:51:45;;;;;;;18.95;9.75;;;1.50;89.30;;;;;;9182244;19;20018;-76
2024/01/07 04:54:56;;;;;;;15.73;8.32;;;1.50;89.30;;;;;;9182405;19;20046;-76
2024/01/07 04:58:02;;;;;;;16.80;9.02;;;1.50;89.30;;;;;;9179598;19;20055;-76
2024/01/07 05:01:12;;;;;;;16.92;8.77;;;1.50;89.30;;;;;;9182304;19;20019;-76
2024/01/07 05:04:19;;;;;;;16.10;8.23;;;1.50;89.20;;;;;;9180040;19;20138;-76
2024/01/07 05:07:26;;;;;;;16.33;8.68;;;1.50;89.90;;;;;;9178756;19;20030;-76
2024/01/07 05:10:32;;;;;;;15.98;8.15;;;1.50;89.30;;;;;;9181250;19;20090;-76
2024/01/07 05:13:40;;;;;;;15.65;7.85;;;1.50;89.20;;;;;;9174380;19;20015;-75
2024/01/07 05:16:48;;;;;;;13.07;7.13;;;1.50;89.20;;;;;;9179084;19;20013;-76
2024/01/07 05:19:55;;;;;;;13.23;7.05;;;1.50;89.20;;;;;;9177847;19;20346;-72
2024/01/07 05:23:01;;;;;;;13.55;7.65;;;1.40;89.20;;;;;;9180192;19;20014;-72
2024/01/07 05:26:08;;;;;;;12.38;6.65;;;1.40;89.20;;;;;;9179518;19;20014;-72
2024/01/07 05:29:14;;;;;;;11.15;6.80;;;1.50;89.30;;;;;;9179169;19;20022;-70
2024/01/07 05:32:24;;;;;;;10.45;6.93;;;1.50;89.20;;;;;;9179240;19;20517;-70
2024/01/07 05:35:30;;;;;;;15.02;7.32;;;1.40;89.10;;;;;;9179865;19;20078;-70
2024/01/07 05:38:38;;;;;;;11.38;6.93;;;1.40;89.10;;;;;;9178272;19;20014;-70
2024/01/07 05:41:43;;;;;;;12.70;6.80;;;1.40;89.10;;;;;;9179260;19;20468;-72
2024/01/07 05:44:51;;;;;;;13.40;7.03;;;1.40;89.00;;;;;;9178820;19;20014;-70
2024/01/07 05:47:59;;;;;;;10.32;6.88;;;1.40;89.00;;;;;;9178749;19;20772;-70
2024/01/07 05:51:07;;;;;;;10.30;6.80;;;1.40;89.10;;;;;;9176792;19;20109;-69
2024/01/07 05:54:12;;;;;;;11.90;6.90;;;1.40;89.00;;;;;;9176061;19;20018;-71
2024/01/07 05:57:19;;;;;;;10.13;6.53;;;1.40;89.00;;;;;;9178166;19;20014;-69
2024/01/07 06:00:25;;;;;;;9.38;6.07;;;1.40;89.00;;;;;;9177902;19;20018;-73
2024/01/07 06:03:36;;;;;;;8.07;5.40;;;1.40;89.00;;;;;;9177732;19;20018;-70
2024/01/07 06:06:42;;;;;;;12.18;6.40;;;1.30;88.90;;;;;;9177287;19;20368;-69
2024/01/07 06:09:49;;;;;;;10.07;6.47;;;1.30;88.90;;;;;;9177447;19;20476;-69
2024/01/07 06:12:55;;;;;;;12.02;6.30;;;1.30;88.90;;;;;;9172839;19;20025;-70
2024/01/07 06:16:02;;;;;;;12.90;6.28;;;1.30;88.90;;;;;;9177819;19;20021;-70
2024/01/07 06:19:11;;;;;;;13.23;5.70;;;1.30;88.90;;;;;;9177571;19;20496;-69
2024/01/07 06:22:18;;;;;;;9.32;5.57;;;1.30;88.90;;;;;;9176549;19;20018;-70
2024/01/07 06:25:26;;;;;;;11.57;6.30;;;1.30;88.90;;;;;;9177702;19;20070;-70
2024/01/07 06:28:34;;;;;;;8.90;5.78;;;1.30;88.90;;;;;;9177285;19;20018;-75
2024/01/07 06:31:44;;;;;;;12.55;6.00;;;1.20;88.80;;;;;;9175171;19;20011;-74
2024/01/07 06:34:55;;;;;;;9.17;5.60;;;1.20;88.70;;;;;;9173567;19;20014;-73
2024/01/07 06:38:00;;;;;;;8.43;5.25;;;1.20;88.80;;;;;;9177634;19;20454;-74
2024/01/07 06:41:08;;;;;;;10.27;5.53;;;1.20;88.80;;;;;;9176738;19;20018;-74
2024/01/07 06:44:13;;;;;;;14.02;5.63;;;1.20;88.80;;;;;;9176191;19;20018;-73
2024/01/07 06:47:21;;;;;;;9.55;5.72;;;1.10;88.70;;;;;;9176799;19;20022;-73
2024/01/07 06:50:29;;;;;;;9.57;6.05;;;1.10;88.70;;;;;;9174025;19;20018;-75
2024/01/07 06:53:37;;;;;;;9.75;5.93;;;1.10;88.70;;;;;;9173384;19;20486;-72
2024/01/07 06:56:42;;;;;;;7.82;6.07;;;1.00;88.70;;;;;;9176170;19;20018;-73
2024/01/07 06:59:50;;;;;;;9.73;6.57;;;1.00;88.70;;;;;;9176134;19;20014;-73
2024/01/07 07:02:55;;;;;;;10.02;6.22;;;1.00;88.70;;;;;;9172681;19;20022;-73
2024/01/07 07:06:06;;;;;;;11.05;6.38;;;1.00;88.70;;;;;;9176526;19;20026;-73
2024/01/07 07:09:12;;;;;;;9.68;5.65;;;1.00;88.70;;;;;;9175730;19;20631;-73
2024/01/07 07:12:20;;;;;;;10.63;6.03;;;1.00;88.70;;;;;;9171685;19;20018;-74
2024/01/07 07:15:27;;;;;;;11.15;6.70;;;1.00;88.70;;;;;;9171598;19;20078;-74
2024/01/07 07:18:36;;;;;;;12.80;6.78;;;0.90;88.70;;;;;;9174094;19;20019;-74
2024/01/07 07:21:45;;;;;;;13.77;5.93;;;1.00;88.70;;;;;;9175847;19;20014;-74
2024/01/07 07:24:53;;;;;;;12.07;6.45;;;1.00;88.60;;;;;;9172022;19;20019;-74
2024/01/07 07:28:01;;;;;;;13.40;7.05;;;1.00;88.60;;;;;;9175250;19;20018;-74
2024/01/07 07:31:09;;;;;;;11.80;6.07;;;0.90;88.60;;;;;;9175147;19;20018;-73
2024/01/07 07:34:15;;;;;;;10.38;6.22;;;0.90;88.50;;;;;;9171598;19;20019;-73
2024/01/07 07:37:25;;;;;;;9.60;6.32;;;0.90;88.40;;;;;;9176588;19;20053;-75
2024/01/07 07:40:31;;;;;;;12.52;5.30;;;0.90;88.40;;;;;;9175133;19;20023;-75
2024/01/07 07:43:38;;;;;;;9.68;5.53;;;0.90;89.10;;;;;;9177304;19;20026;-76
2024/01/07 07:46:44;;;;;;;8.35;5.18;;;0.80;88.40;;;;;;9181563;19;20022;-75
2024/01/07 07:49:51;;;;;;;13.40;6.10;;;0.80;88.50;;;;;;9185251;19;20021;-75
2024/01/07 07:53:00;;;;;;;8.65;5.13;;;0.80;88.50;;;;;;9181894;19;20018;-74
2024/01/07 07:56:09;;;;;;;7.95;4.90;;;0.80;88.40;;;;;;9178428;19;20018;-75
2024/01/07 07:59:14;;;;;;;9.90;4.65;;;0.80;88.50;;;;;;9182510;19;20025;-75
2024/01/07 08:02:22;;;;;;;6.55;4.18;;;0.80;88.40;;;;;;9185498;19;20014;-75
2024/01/07 08:05:27;;;;;;;7.32;4.35;;;0.70;88.40;;;;;;9183041;19;20010;-75
2024/01/07 08:08:38;;;;;;;7.38;3.88;;;0.70;88.40;;;;;;9183308;19;20500;-75
2024/01/07 08:11:43;;;;;;;7.53;4.57;;;0.70;88.40;;;;;;9183295;19;20629;-75
2024/01/07 08:14:51;;;;;;;6.75;4.15;;;0.80;88.50;;;;;;9177016;19;20047;-75
2024/01/07 08:17:56;;;;;;;6.50;3.90;;;0.70;88.40;;;;;;9182431;19;20018;-74
2024/01/07 08:21:04;;;;;;;6.78;4.10;;;0.80;88.40;;;;;;9183077;19;20030;-75
2024/01/07 08:24:12;;;;;;;8.52;4.53;;;0.70;88.30;;;;;;9182085;19;20010;-75
2024/01/07 08:27:20;;;;;;;11.57;4.55;;;0.80;88.30;;;;;;9179611;19;20011;-75
2024/01/07 08:30:26;;;;;;;8.38;4.00;;;0.80;88.20;;;;;;9182362;19;20014;-75
2024/01/07 08:33:33;;;;;;;10.90;3.67;;;0.70;88.20;;;;;;9182311;19;20026;-75
2024/01/07 08:36:39;;;;;;;4.15;3.05;;;0.70;88.10;;;;;;9176717;19;20015;-77
2024/01/07 08:39:49;;;;;;;4.57;3.25;;;0.70;88.10;;;;;;9182137;19;20018;-75
2024/01/07 08:42:55;;;;;;;6.15;3.35;;;0.70;88.10;;;;;;9177795;19;20018;-75
2024/01/07 08:46:04;;;;;;;6.28;3.35;;;0.70;88.10;;;;;;9181431;19;20021;-73
2024/01/07 08:49:10;;;;;;;8.40;3.40;;;0.80;88.10;;;;;;9181117;19;20034;-75
2024/01/07 08:52:17;;;;;;;6.80;3.38;;;0.70;88.00;;;;;;9181535;19;20022;-75
2024/01/07 08:55:25;;;;;;;5.57;2.90;;;0.70;88.00;;;;;;9177741;19;20014;-72
2024/01/07 08:58:33;;;;;;;5.30;3.00;;;0.70;88.10;;;;;;9180633;19;20022;-73
2024/01/07 09:01:38;;;;;;;7.93;3.30;;;0.70;88.00;;;;;;9180168;19;20066;-73
2024/01/07 09:04:46;;;;;;;5.72;3.22;;;0.70;88.00;;;;;;9174358;19;20015;-72
2024/01/07 09:07:52;;;;;;;8.45;3.20;;;0.70;88.10;;;;;;9175096;19;20022;-73
2024/01/07 09:11:02;;;;;;;6.22;3.15;;;0.70;88.00;;;;;;9178538;19;20045;-74
2024/01/07 09:14:08;;;;;;;4.82;2.92;;;0.70;87.90;;;;;;9171582;19;20131;-73
2024/01/07 09:17:17;;;;;;;7.53;3.22;;;0.70;87.90;;;;;;9179074;19;20018;-74
2024/01/07 09:20:22;;;;;;;5.22;2.95;;;0.70;87.80;;;;;;9179653;19;20015;-73
2024/01/07 09:23:30;;;;;;;7.05;2.80;;;0.70;87.80;;;;;;9179782;19;20385;-73
2024/01/07 09:26:38;;;;;;;5.95;3.17;;;0.80;87.90;;;;;;9180350;19;20014;-73
2024/01/07 09:29:45;;;;;;;5.65;2.90;;;0.80;87.90;;;;;;9177877;19;20010;-74
2024/01/07 09:32:51;;;;;;;5.22;2.42;;;0.80;87.80;;;;;;9179085;19;20025;-73
2024/01/07 09:35:58;;;;;;;6.97;2.50;;;0.80;87.70;;;;;;9176200;19;20015;-73
2024/01/07 09:39:20;;;;;;;4.75;2.38;;;0.80;87.70;;;;;;9176005;19;20026;-72
2024/01/07 09:42:31;;;;;;;7.57;3.50;;;0.80;87.70;;;;;;9179281;19;20014;-73
2024/01/07 09:45:41;;;;;;;6.68;2.78;;;0.80;88.10;;;;;;9178938;19;20029;-73
2024/01/07 09:48:48;;;;;;;7.05;2.85;;;0.80;87.60;;;;;;9177442;19;20022;-73
2024/01/07 09:52:02;;;;;;;5.28;2.30;;;0.80;87.60;;;;;;9168361;19;20018;-73
2024/01/07 09:55:14;;;;;;;4.13;2.55;;;0.80;87.60;;;;;;9175291;19;20010;-74
2024/01/07 09:58:22;;;;;;;5.45;2.40;;;0.80;87.50;;;;;;9176775;19;20028;-72
2024/01/07 10:01:30;;;;;;;3.03;1.80;;;0.80;87.50;;;;;;9177061;19;20014;-72
2024/01/07 10:04:35;;;;;;;3.65;1.88;;;0.80;87.40;;;;;;9175753;19;20354;-73
2024/01/07 10:07:43;;;;;;;3.38;1.77;;;0.80;87.50;;;;;;9175972;19;20373;-73
2024/01/07 10:10:51;;;;;;;3.08;2.30;;;0.80;87.40;;;;;;9177617;19;20018;-73
2024/01/07 10:14:04;;;;;;;3.15;2.20;;;0.80;87.40;;;;;;9176922;19;20014;-73
2024/01/07 10:17:23;;;;;;;4.13;2.20;;;0.90;87.40;;;;;;9176447;19;20403;-73
2024/01/07 10:20:31;;;;;;;4.78;2.60;;;1.00;87.50;;;;;;9176411;19;20722;-73
2024/01/07 10:23:37;;;;;;;3.80;2.00;;;1.00;87.50;;;;;;9176758;19;20031;-74
2024/01/07 10:26:45;;;;;;;1.95;1.45;;;1.10;87.50;;;;;;9177269;19;20015;-72
2024/01/07 10:29:55;;;;;;;3.30;2.20;;;1.10;87.40;;;;;;9173973;19;20021;-74
2024/01/07 10:33:02;;;;;;;3.08;1.83;;;1.20;87.40;;;;;;9174088;19;20018;-73
2024/01/07 10:36:09;;;;;;;3.58;2.03;;;1.20;87.20;;;;;;9175719;19;20020;-73
2024/01/07 10:39:17;;;;;;;5.88;1.90;;;1.20;87.10;;;;;;9174982;19;20011;-73
2024/01/07 10:42:23;;;;;;;3.63;2.30;;;1.20;87.10;;;;;;9176452;19;20787;-73
2024/01/07 10:45:33;;;;;;;4.10;2.35;;;1.20;86.90;;;;;;9175364;19;20019;-75
2024/01/07 10:48:41;;;;;;;2.78;2.00;;;1.20;86.70;;;;;;9174141;19;20127;-74
2024/01/07 10:51:53;;;;;;;8.85;1.80;;;1.20;86.70;;;;;;9171411;19;20023;-75
2024/01/07 10:55:05;;;;;;;2.72;1.98;;;1.20;86.70;;;;;;9174898;19;20082;-75
2024/01/07 10:58:13;;;;;;;2.22;1.60;;;1.20;86.70;;;;;;9174961;19;20102;-74
2024/01/07 11:01:22;;;;;;;2.85;2.00;;;1.20;86.70;;;;;;9173915;19;20047;-74
2024/01/07 11:04:36;;;;;;;3.60;1.90;;;1.20;86.70;;;;;;9175812;19;20401;-73
2024/01/07 11:07:45;;;;;;;2.67;1.50;;;1.20;86.70;;;;;;9172022;19;20010;-73
2024/01/07 11:11:00;;;;;;;4.40;2.13;;;1.30;86.80;;;;;;9174514;19;20025;-74
2024/01/07 11:14:05;;;;;;;3.80;2.10;;;1.30;86.80;;;;;;9174429;19;20022;-74
2024/01/07 11:17:15;;;;;;;3.50;1.90;;;1.30;86.80;;;;;;9172916;19;20480;-75
2024/01/07 11:20:26;;;;;;;8.45;3.03;;;1.30;86.70;;;;;;9182917;19;20021;-73
2024/01/07 11:23:37;;;;;;;4.57;1.80;;;1.30;86.60;;;;;;9183469;19;20015;-74
2024/01/07 11:26:42;;;;;;;4.18;1.75;;;1.30;86.60;;;;;;9183761;19;20024;-76
2024/01/07 11:29:56;;;;;;;3.47;1.80;;;1.40;86.70;;;;;;9182218;19;20591;-76
2024/01/07 11:33:07;;;;;;;4.80;1.65;;;1.40;86.60;;;;;;9183644;19;20376;-75
2024/01/07 11:36:16;;;;;;;5.68;1.80;;;1.40;86.60;;;;;;9182640;19;20014;-75
2024/01/07 11:39:22;;;;;;;5.32;2.05;;;1.50;87.30;;;;;;9184858;19;20460;-76
2024/01/07 11:42:30;;;;;;;3.83;1.67;;;1.50;86.60;;;;;;9184179;19;20052;-76
2024/01/07 11:45:35;;;;;;;2.53;1.77;;;1.50;86.50;;;;;;9181458;19;20011;-76
2024/01/07 11:48:48;;;;;;;5.90;1.90;;;1.50;86.50;;;;;;9184764;19;20026;-76
2024/01/07 11:51:54;;;;;;;3.75;1.60;;;1.60;86.50;;;;;;9178660;19;20025;-77
2024/01/07 11:55:02;;;;;;;3.53;1.73;;;1.60;86.50;;;;;;9180087;19;20018;-76
2024/01/07 11:58:08;;;;;;;4.07;1.92;;;1.60;86.40;;;;;;9180137;19;20026;-75
2024/01/07 12:01:17;;;;;;;2.65;1.55;;;1.60;86.30;;;;;;9181413;19;20018;-76
2024/01/07 12:04:28;;;;;;;6.57;1.90;;;1.70;86.30;;;;;;9182633;19;20021;-75
2024/01/07 12:07:36;;;;;;;6.13;1.80;;;1.70;86.10;;;;;;9180169;19;20504;-76
2024/01/07 12:10:43;;;;;;;6.68;2.00;;;1.70;86.10;;;;;;9182081;19;20022;-75
2024/01/07 12:13:52;;;;;;;3.92;1.60;;;1.70;86.20;;;;;;9184036;19;20082;-76
2024/01/07 12:16:58;;;;;;;3.17;2.00;;;1.70;86.10;;;;;;9178538;19;20047;-76
2024/01/07 12:20:09;;;;;;;6.57;2.15;;;1.70;86.00;;;;;;9182719;19;20028;-75
2024/01/07 12:23:15;;;;;;;4.13;1.60;;;1.80;86.00;;;;;;9183181;19;20026;-76
2024/01/07 12:26:25;;;;;;;8.15;2.00;;;1.80;86.00;;;;;;9179999;19;20014;-76
2024/01/07 12:29:30;;;;;;;3.60;1.80;;;1.90;86.00;;;;;;9180576;19;20365;-75
2024/01/07 12:32:38;;;;;;;6.18;1.88;;;1.80;85.80;;;;;;9182283;19;20438;-75
2024/01/07 12:35:46;;;;;;;3.47;1.92;;;1.80;85.80;;;;;;9181640;19;20089;-75
2024/01/07 12:38:55;;;;;;;3.65;2.08;;;1.80;85.70;;;;;;9175467;19;20022;-75
2024/01/07 12:42:01;;;;;;;3.42;2.85;;;1.80;85.70;;;;;;9179890;19;20361;-76
2024/01/07 12:45:09;;;;;;;3.42;1.50;;;1.80;85.70;;;;;;9181080;19;20035;-76
2024/01/07 12:48:20;;;;;;;3.85;1.60;;;1.90;85.70;;;;;;9179869;19;20086;-75
2024/01/07 12:51:30;;;;;;;1.70;1.40;;;1.90;85.60;;;;;;9173465;19;20019;-75
2024/01/07 12:54:36;;;;;;;4.88;1.60;;;1.90;85.60;;;;;;9177288;19;20021;-75
2024/01/07 12:57:43;;;;;;;2.10;1.65;;;1.90;85.60;;;;;;9173352;19;20017;-74
2024/01/07 13:00:52;;;;;;;3.75;1.50;;;1.90;85.40;;;;;;9179135;19;20105;-75
2024/01/07 13:04:00;;;;;;;4.15;1.70;;;2.00;85.50;;;;;;9180883;19;20040;-75
2024/01/07 13:07:11;;;;;;;1.98;1.48;;;2.00;85.40;;;;;;9177004;19;20025;-76
2024/01/07 13:10:19;;;;;;;2.40;1.60;;;1.90;85.30;;;;;;9177534;19;20376;-75
2024/01/07 13:13:26;;;;;;;2.13;1.48;;;2.00;85.30;;;;;;9178156;19;20484;-76
2024/01/07 13:16:34;;;;;;;2.67;1.30;;;2.00;85.30;;;;;;9177465;19;20014;-75
2024/01/07 13:19:40;;;;;;;1.77;1.33;;;2.00;85.10;;;;;;9174030;19;20129;-75
2024/01/07 13:22:50;;;;;;;3.22;1.42;;;2.00;85.10;;;;;;9177445;19;20017;-76
2024/01/07 13:25:56;;;;;;;4.07;1.30;;;2.00;85.10;;;;;;9176341;19;20082;-75
2024/01/07 13:29:04;;;;;;;3.03;1.48;;;2.00;85.10;;;;;;9178567;19;20015;-76
2024/01/07 13:32:09;;;;;;;4.28;1.42;;;2.00;85.00;;;;;;9176112;19;20023;-75
2024/01/07 13:35:17;;;;;;;3.83;1.30;;;2.00;85.00;;;;;;9174943;19;20021;-74
2024/01/07 13:38:26;;;;;;;3.03;1.42;;;2.00;84.90;;;;;;9174083;19;20019;-77
2024/01/07 13:41:33;;;;;;;1.75;1.30;;;2.00;84.90;;;;;;9172044;19;20025;-76
2024/01/07 13:44:46;;;;;;;4.07;1.70;;;2.00;84.70;;;;;;9175397;19;20010;-75
2024/01/07 13:47:54;;;;;;;4.72;1.73;;;2.00;84.70;;;;;;9175376;19;20029;-75
2024/01/07 13:51:03;;;;;;;3.40;1.55;;;2.00;84.80;;;;;;9174476;19;20040;-75
2024/01/07 13:54:14;;;;;;;2.95;1.45;;;2.00;84.80;;;;;;9179367;19;20014;-73
2024/01/07 13:57:20;;;;;;;2.63;1.52;;;2.00;84.70;;;;;;9168685;19;20400;-74
2024/01/07 14:00:28;;;;;;;2.22;1.50;;;2.00;84.60;;;;;;9175668;19;20513;-74
2024/01/07 14:03:38;;;;;;;3.53;1.65;;;2.00;84.60;;;;;;9175009;19;20487;-77
2024/01/07 14:06:46;;;;;;;4.18;2.10;;;2.00;84.60;;;;;;9173153;19;20014;-75
2024/01/07 14:09:56;;;;;;;4.00;1.98;;;2.00;84.60;;;;;;9172951;19;20018;-75
2024/01/07 14:13:03;;;;;;;2.65;1.75;;;2.00;84.50;;;;;;9176982;19;20480;-74
2024/01/07 14:16:09;;;;;;;2.95;1.70;;;2.00;84.60;;;;;;9177421;19;20018;-74
2024/01/07 14:19:17;;;;;;;3.15;2.10;;;2.00;84.50;;;;;;9173465;19;20081;-74
2024/01/07 14:22:23;;;;;;;3.80;2.00;;;2.00;84.50;;;;;;9175861;19;20010;-73
2024/01/07 14:25:33;;;;;;;4.63;1.90;;;2.00;84.40;;;;;;9177260;19;20022;-74
2024/01/07 14:28:39;;;;;;;4.10;2.70;;;2.00;84.40;;;;;;9177251;19;20034;-74
2024/01/07 14:31:48;;;;;;;2.10;1.45;;;2.00;84.30;;;;;;9175403;19;20014;-73
2024/01/07 14:34:53;;;;;;;4.45;2.40;;;2.00;84.30;;;;;;9177052;19;20006;-74
2024/01/07 14:38:04;;;;;;;5.22;2.30;;;2.00;84.30;;;;;;9175485;19;20019;-74
2024/01/07 14:41:14;;;;;;;4.30;1.85;;;2.00;84.40;;;;;;9177263;19;20007;-76
2024/01/07 14:44:22;;;;;;;3.45;2.10;;;2.00;84.30;;;;;;9176469;19;20023;-73
2024/01/07 14:47:41;;;;;;;3.55;2.30;;;2.00;84.40;;;;;;9174554;19;20018;-71
2024/01/07 14:50:48;;;;;;;3.05;2.50;;;2.00;84.30;;;;;;9176759;19;20014;-68
2024/01/07 14:53:57;;;;;;;2.92;2.50;;;2.00;84.30;;;;;;9174714;19;20044;-69
2024/01/07 14:57:09;;;;;;;6.45;2.88;;;2.00;84.20;;;;;;9169911;19;20023;-69
2024/01/07 15:00:15;;;;;;;5.25;2.80;;;2.00;84.30;;;;;;9172350;19;20021;-69
2024/01/07 15:03:23;;;;;;;5.03;2.08;;;2.00;84.30;;;;;;9174884;19;20069;-68
2024/01/07 15:06:29;;;;;;;6.00;2.63;;;1.90;84.20;;;;;;9170817;19;20018;-70
2024/01/07 15:09:36;;;;;;;4.15;2.17;;;1.90;84.20;;;;;;9172262;19;20653;-69
2024/01/07 15:12:44;;;;;;;5.47;3.10;;;1.90;84.20;;;;;;9171798;19;20108;-69
2024/01/07 15:16:00;;;;;;;4.50;2.75;;;1.90;84.10;;;;;;9173355;19;20021;-70
2024/01/07 15:19:06;;;;;;;4.55;2.53;;;1.90;84.70;;;;;;9173199;19;20014;-70
2024/01/07 15:22:14;;;;;;;8.70;3.25;;;1.90;84.10;;;;;;9173811;19;20468;-72
2024/01/07 15:25:21;;;;;;;6.63;3.00;;;1.90;84.00;;;;;;9173998;19;20018;-71
2024/01/07 15:28:32;;;;;;;4.47;2.75;;;1.80;84.00;;;;;;9173910;19;20018;-69
2024/01/07 15:31:38;;;;;;;7.63;2.85;;;1.80;83.90;;;;;;9174001;19;20044;-68
2024/01/07 15:34:46;;;;;;;3.40;2.50;;;1.80;83.90;;;;;;9174173;19;20030;-70
2024/01/07 15:37:54;;;;;;;4.57;2.53;;;1.80;83.90;;;;;;9173361;19;20015;-70
2024/01/07 15:41:02;;;;;;;4.95;2.85;;;1.80;84.00;;;;;;9172514;19;20014;-70
2024/01/07 15:44:10;;;;;;;7.80;3.15;;;1.70;83.90;;;;;;9171485;19;20015;-69
2024/01/07 15:47:20;;;;;;;6.05;2.50;;;1.70;83.80;;;;;;9173435;19;20078;-69
2024/01/07 15:50:25;;;;;;;6.00;3.00;;;1.70;84.50;;;;;;9172751;19;20018;-68
2024/01/07 15:53:34;;;;;;;6.75;3.03;;;1.70;83.90;;;;;;9168206;19;20396;-71
2024/01/07 15:56:39;;;;;;;6.95;3.33;;;1.60;83.80;;;;;;9164357;19;20014;-69
2024/01/07 15:59:50;;;;;;;7.32;4.22;;;1.60;83.80;;;;;;9165555;19;20025;-69
2024/01/07 16:02:56;;;;;;;4.00;2.63;;;1.60;83.90;;;;;;9166589;19;20029;-70
2024/01/07 16:06:04;;;;;;;8.15;3.58;;;1.50;83.80;;;;;;9173763;19;20345;-69
2024/01/07 16:09:11;;;;;;;9.25;3.40;;;1.60;83.90;;;;;;9179196;19;20020;-70
2024/01/07 16:12:18;;;;;;;7.65;3.38;;;1.50;83.80;;;;;;9180133;19;20015;-70
2024/01/07 16:15:27;;;;;;;7.80;3.95;;;1.50;83.80;;;;;;9178462;19;20388;-69
2024/01/07 16:18:35;;;;;;;5.18;3.00;;;1.50;83.80;;;;;;9177789;19;20015;-69
2024/01/07 16:21:41;;;;;;;5.95;3.03;;;1.50;83.70;;;;;;9177565;19;20014;-69